createdAt,value
2022-11-15T00:00:40.200Z,32.13
2022-11-15T00:03:10.136Z,32.88
2022-11-15T00:05:40.856Z,30.35
2022-11-15T00:08:10.590Z,32.17
2022-11-15T00:10:40.194Z,30.60
2022-11-15T00:13:11.122Z,32.83
2022-11-15T00:15:41.315Z,32.55
2022-11-15T00:18:15.601Z,32.67
2022-11-15T00:20:46.591Z,31.05
2022-11-15T00:23:16.548Z,30.05
2022-11-15T00:25:46.038Z,32.30
2022-11-15T00:28:16.039Z,31.42
2022-11-15T00:30:45.578Z,31.58
2022-11-15T00:33:15.550Z,30.52
2022-11-15T00:35:46.312Z,31.73
2022-11-15T00:38:16.484Z,32.55
2022-11-15T00:40:46.022Z,31.38
2022-11-15T00:43:16.091Z,31.33
2022-11-15T00:45:45.967Z,30.83
2022-11-15T00:48:16.090Z,30.80
2022-11-15T00:50:46.987Z,32.92
2022-11-15T00:53:17.068Z,35.15
2022-11-15T00:55:46.339Z,38.55
2022-11-15T00:58:16.548Z,37.33
2022-11-15T01:00:45.836Z,36.90
2022-11-15T01:03:16.089Z,37.03
2022-11-15T01:05:47.024Z,38.92
2022-11-15T01:08:17.870Z,37.97
2022-11-15T01:10:47.146Z,38.80
2022-11-15T01:13:17.100Z,35.07
2022-11-15T01:15:46.969Z,34.22
2022-11-15T01:18:17.056Z,37.15
2022-11-15T01:20:47.843Z,35.35
2022-11-15T01:23:17.880Z,35.47
2022-11-15T01:25:47.348Z,34.70
2022-11-15T01:28:17.789Z,32.72
2022-11-15T01:30:47.033Z,33.28
2022-11-15T01:33:17.099Z,33.15
2022-11-15T01:35:47.960Z,32.28
2022-11-15T01:38:17.775Z,33.35
2022-11-15T01:40:46.998Z,33.50
2022-11-15T01:43:24.668Z,32.05
2022-11-15T01:45:58.047Z,34.25
2022-11-15T01:48:32.235Z,34.97
2022-11-15T01:51:06.413Z,35.03
2022-11-15T01:53:40.119Z,35.97
2022-11-15T01:56:12.160Z,33.83
2022-11-15T01:58:43.679Z,32.30
2022-11-15T02:01:14.278Z,33.28
2022-11-15T02:06:17.748Z,31.42
2022-11-15T02:08:47.970Z,32.28
2022-11-15T02:11:17.199Z,34.28
2022-11-15T02:13:47.396Z,32.15
2022-11-15T02:16:25.960Z,30.95
2022-11-15T02:19:02.658Z,32.10
2022-11-15T02:21:37.892Z,29.90
2022-11-15T02:24:48.149Z,31.05
2022-11-15T02:27:49.817Z,31.95
2022-11-15T02:30:25.260Z,31.60
2022-11-15T02:32:59.902Z,33.97
2022-11-15T02:35:38.459Z,38.25
2022-11-15T02:38:11.832Z,37.85
2022-11-15T02:40:48.112Z,35.95
2022-11-15T02:43:45.008Z,39.75
2022-11-15T02:46:22.623Z,37.13
2022-11-15T02:48:52.509Z,35.47
2022-11-15T02:51:22.550Z,39.60
2022-11-15T02:53:52.140Z,39.58
2022-11-15T02:56:22.176Z,39.90
2022-11-15T02:59:05.823Z,40.13
2022-11-15T03:01:48.404Z,41.55
2022-11-15T03:04:26.463Z,37.65
2022-11-15T03:07:02.407Z,39.22
2022-11-15T03:09:38.064Z,38.70
2022-11-15T03:12:14.616Z,37.00
2022-11-15T03:14:54.536Z,37.20
2022-11-15T03:17:29.120Z,38.08
2022-11-15T03:20:01.551Z,40.17
2022-11-15T03:22:35.936Z,38.97
2022-11-15T03:25:09.587Z,42.80
2022-11-15T03:27:44.899Z,39.47
2022-11-15T03:30:15.685Z,39.45
2022-11-15T03:32:52.265Z,40.47
2022-11-15T03:35:25.005Z,40.60
2022-11-15T03:37:57.363Z,40.72
2022-11-15T03:40:32.820Z,39.00
2022-11-15T03:43:09.534Z,37.47
2022-11-15T03:45:44.911Z,36.63
2022-11-15T03:48:21.449Z,37.25
2022-11-15T03:50:51.613Z,33.38
2022-11-15T03:53:21.658Z,36.05
2022-11-15T03:55:50.922Z,37.75
2022-11-15T03:58:21.090Z,35.15
2022-11-15T04:00:50.619Z,36.60
2022-11-15T04:03:22.239Z,34.47
2022-11-15T04:05:51.739Z,36.05
2022-11-15T04:08:21.540Z,33.90
2022-11-15T04:10:52.304Z,34.70
2022-11-15T04:13:21.882Z,34.40
2022-11-15T04:15:51.119Z,34.97
2022-11-15T04:18:22.756Z,35.78
2022-11-15T04:21:09.251Z,32.78
2022-11-15T04:23:56.240Z,33.13
2022-11-15T04:26:26.295Z,31.83
2022-11-15T04:29:12.988Z,31.35
2022-11-15T04:31:42.403Z,30.92
2022-11-15T04:34:13.828Z,32.77
2022-11-15T04:37:00.141Z,30.85
2022-11-15T04:39:29.757Z,30.80
2022-11-15T04:41:59.213Z,29.95
2022-11-15T04:44:28.944Z,29.23
2022-11-15T04:46:58.184Z,33.13
2022-11-15T04:49:29.633Z,32.35
2022-11-15T04:51:59.428Z,30.17
2022-11-15T04:54:29.567Z,31.17
2022-11-15T04:56:58.869Z,28.02
2022-11-15T04:59:29.234Z,28.80
2022-11-15T05:01:58.685Z,32.22
2022-11-15T05:04:29.061Z,27.85
2022-11-15T05:06:58.691Z,28.52
2022-11-15T05:09:28.594Z,32.13
2022-11-15T05:11:58.212Z,30.17
2022-11-15T05:14:28.377Z,30.80
2022-11-15T05:16:57.832Z,29.38
2022-11-15T05:19:29.349Z,27.80
2022-11-15T05:21:58.672Z,26.48
2022-11-15T05:24:29.137Z,26.92
2022-11-15T05:26:58.403Z,27.35
2022-11-15T05:29:28.390Z,26.67
2022-11-15T05:31:58.343Z,25.83
2022-11-15T05:34:29.912Z,23.63
2022-11-15T05:36:59.594Z,24.73
2022-11-15T05:39:29.619Z,23.15
2022-11-15T05:42:03.952Z,26.50
2022-11-15T05:44:34.849Z,26.13
2022-11-15T05:47:04.876Z,26.53
2022-11-15T05:49:39.272Z,22.85
2022-11-15T05:52:12.634Z,26.52
2022-11-15T05:54:43.621Z,25.88
2022-11-15T05:57:13.407Z,24.73
2022-11-15T05:59:44.934Z,25.17
2022-11-15T06:02:14.619Z,23.92
2022-11-15T06:04:45.731Z,27.27
2022-11-15T06:07:15.066Z,27.15
2022-11-15T06:09:45.253Z,24.07
2022-11-15T06:12:14.597Z,22.25
2022-11-15T06:14:44.532Z,25.37
2022-11-15T06:17:13.921Z,25.83
2022-11-15T06:19:45.486Z,24.67
2022-11-15T06:22:14.960Z,24.30
2022-11-15T06:24:45.305Z,25.48
2022-11-15T06:27:14.555Z,22.42
2022-11-15T06:29:44.501Z,22.73
2022-11-15T06:32:14.215Z,22.80
2022-11-15T06:34:45.488Z,22.75
2022-11-15T06:37:14.706Z,19.85
2022-11-15T06:39:44.717Z,21.35
2022-11-15T06:42:14.089Z,23.00
2022-11-15T06:44:43.689Z,23.80
2022-11-15T06:47:12.912Z,21.92
2022-11-15T06:49:42.746Z,22.10
2022-11-15T06:52:13.552Z,22.17
2022-11-15T06:54:43.375Z,23.98
2022-11-15T06:57:12.667Z,22.90
2022-11-15T06:59:42.521Z,22.23
2022-11-15T07:02:15.284Z,22.83
2022-11-15T07:04:45.548Z,22.85
2022-11-15T07:07:16.377Z,23.33
2022-11-15T07:09:46.406Z,22.23
2022-11-15T07:12:16.095Z,20.92
2022-11-15T07:14:46.231Z,22.63
2022-11-15T07:17:15.684Z,21.20
2022-11-15T07:19:45.289Z,21.55
2022-11-15T07:22:15.988Z,22.13
2022-11-15T07:24:45.959Z,21.60
2022-11-15T07:27:15.272Z,22.50
2022-11-15T07:29:45.307Z,23.20
2022-11-15T07:32:14.634Z,20.30
2022-11-15T07:34:46.436Z,22.65
2022-11-15T07:37:18.195Z,21.38
2022-11-15T07:39:48.320Z,24.48
2022-11-15T07:42:35.281Z,20.65
2022-11-15T07:45:05.339Z,21.13
2022-11-15T07:47:34.611Z,19.90
2022-11-15T07:50:04.715Z,21.15
2022-11-15T07:52:35.487Z,21.65
2022-11-15T07:55:05.225Z,21.17
2022-11-15T07:57:34.508Z,21.90
2022-11-15T08:00:04.695Z,21.33
2022-11-15T08:02:34.303Z,21.17
2022-11-15T08:05:05.220Z,21.38
2022-11-15T08:07:36.081Z,21.55
2022-11-15T08:10:07.245Z,21.17
2022-11-15T08:12:37.253Z,19.83
2022-11-15T08:15:08.536Z,20.50
2022-11-15T08:17:37.816Z,20.10
2022-11-15T08:20:08.439Z,21.25
2022-11-15T08:22:39.400Z,21.67
2022-11-15T08:25:09.712Z,22.67
2022-11-15T08:27:39.248Z,23.83
2022-11-15T08:30:10.148Z,22.25
2022-11-15T08:32:39.598Z,22.98
2022-11-15T08:35:10.253Z,24.60
2022-11-15T08:37:41.272Z,22.05
2022-11-15T08:40:12.136Z,22.48
2022-11-15T08:42:41.583Z,22.77
2022-11-15T08:45:12.788Z,21.90
2022-11-15T08:47:42.316Z,21.55
2022-11-15T08:50:12.448Z,21.05
2022-11-15T08:52:43.293Z,18.83
2022-11-15T08:55:13.525Z,18.77
2022-11-15T08:57:42.916Z,19.63
2022-11-15T09:00:14.600Z,20.40
2022-11-15T09:05:13.464Z,20.58
2022-11-15T09:07:44.425Z,21.02
2022-11-15T09:10:14.064Z,20.77
2022-11-15T09:12:43.300Z,20.42
2022-11-15T09:15:13.339Z,21.80
2022-11-15T09:17:42.812Z,19.25
2022-11-15T09:20:13.259Z,21.67
2022-11-15T09:22:44.225Z,20.48
2022-11-15T09:25:14.191Z,20.95
2022-11-15T09:27:43.681Z,21.25
2022-11-15T09:30:14.504Z,22.13
2022-11-15T09:32:43.964Z,21.63
2022-11-15T09:35:14.120Z,21.47
2022-11-15T09:37:45.232Z,20.67
2022-11-15T09:40:18.161Z,20.75
2022-11-15T09:42:58.655Z,20.77
2022-11-15T09:45:34.865Z,19.90
2022-11-15T09:48:24.156Z,19.95
2022-11-15T09:51:01.207Z,20.52
2022-11-15T09:54:23.633Z,21.08
2022-11-15T09:56:30.134Z,22.23
2022-11-15T09:59:10.867Z,21.30
2022-11-15T10:04:14.303Z,22.48
2022-11-15T10:06:49.870Z,22.37
2022-11-15T10:09:25.418Z,22.42
2022-11-15T10:11:55.403Z,22.00
2022-11-15T10:14:27.204Z,22.88
2022-11-15T10:17:37.835Z,21.75
2022-11-15T10:20:15.328Z,20.02
2022-11-15T10:22:51.115Z,22.98
2022-11-15T10:25:25.234Z,22.40
2022-11-15T10:28:02.066Z,19.67
2022-11-15T10:30:38.007Z,20.60
2022-11-15T10:33:22.254Z,20.88
2022-11-15T10:36:06.736Z,18.85
2022-11-15T10:38:52.957Z,18.83
2022-11-15T10:41:31.966Z,22.75
2022-11-15T10:44:26.959Z,21.00
2022-11-15T10:47:25.065Z,20.42
2022-11-15T10:50:07.188Z,22.08
2022-11-15T10:52:39.656Z,22.13
2022-11-15T10:55:26.481Z,21.10
2022-11-15T10:58:02.926Z,20.17
2022-11-15T11:00:38.265Z,21.20
2022-11-15T11:03:14.292Z,22.63
2022-11-15T11:05:44.129Z,22.02
2022-11-15T11:08:26.223Z,21.73
2022-11-15T11:11:02.201Z,22.45
2022-11-15T11:13:36.858Z,22.63
2022-11-15T11:16:38.904Z,21.10
2022-11-15T11:19:31.212Z,21.20
2022-11-15T11:22:08.504Z,20.17
2022-11-15T11:24:46.637Z,20.60
2022-11-15T11:27:27.268Z,19.70
2022-11-15T11:30:06.623Z,20.38
2022-11-15T11:32:55.237Z,19.35
2022-11-15T11:35:31.963Z,19.45
2022-11-15T11:38:17.741Z,20.50
2022-11-15T11:40:55.709Z,18.60
2022-11-15T11:43:33.264Z,19.92
2022-11-15T11:46:23.417Z,21.50
2022-11-15T11:48:58.563Z,21.85
2022-11-15T11:51:31.672Z,21.90
2022-11-15T11:54:06.875Z,21.63
2022-11-15T11:56:40.565Z,22.13
2022-11-15T11:59:19.594Z,22.20
2022-11-15T12:01:50.509Z,21.33
2022-11-15T12:04:23.658Z,22.75
2022-11-15T12:06:57.302Z,21.75
2022-11-15T12:09:32.774Z,21.92
2022-11-15T12:12:10.582Z,23.75
2022-11-15T12:14:45.501Z,24.40
2022-11-15T12:17:17.369Z,24.98
2022-11-15T12:19:47.827Z,28.08
2022-11-15T12:22:23.304Z,31.43
2022-11-15T12:25:00.165Z,28.83
2022-11-15T12:27:38.340Z,30.50
2022-11-15T12:30:15.123Z,29.42
2022-11-15T12:32:55.933Z,28.95
2022-11-15T12:35:33.181Z,31.52
2022-11-15T12:38:02.869Z,31.73
2022-11-15T12:40:38.664Z,31.13
2022-11-15T12:43:43.580Z,28.85
2022-11-15T12:46:24.264Z,29.17
2022-11-15T12:49:00.155Z,32.25
2022-11-15T12:52:08.411Z,31.33
2022-11-15T12:55:03.177Z,31.08
2022-11-15T12:57:39.930Z,30.10
2022-11-15T13:00:49.965Z,33.63
2022-11-15T13:03:24.648Z,32.10
2022-11-15T13:06:36.068Z,31.30
2022-11-15T13:09:45.680Z,32.97
2022-11-15T13:12:55.666Z,33.95
2022-11-15T13:15:48.651Z,31.02
2022-11-15T13:18:34.888Z,31.73
2022-11-15T13:21:29.147Z,31.80
2022-11-15T13:23:58.607Z,33.65
2022-11-15T13:26:29.927Z,30.73
2022-11-15T13:31:37.064Z,30.90
2022-11-15T13:34:49.519Z,31.75
2022-11-15T13:37:31.105Z,28.08
2022-11-15T13:40:23.665Z,33.00
2022-11-15T13:42:55.669Z,30.95
2022-11-15T13:45:25.796Z,35.13
2022-11-15T13:47:58.271Z,34.50
2022-11-15T13:50:30.701Z,34.75
2022-11-15T13:53:03.739Z,34.97
2022-11-15T13:55:35.240Z,31.70
2022-11-15T13:58:08.126Z,31.48
2022-11-15T14:00:41.403Z,33.53
2022-11-15T14:03:20.679Z,30.67
2022-11-15T14:06:13.406Z,31.35
2022-11-15T14:08:44.235Z,32.42
2022-11-15T14:11:19.275Z,29.55
2022-11-15T14:14:13.839Z,27.92
2022-11-15T14:16:44.946Z,27.17
2022-11-15T14:19:35.510Z,27.60
2022-11-15T14:22:16.191Z,32.40
2022-11-15T14:24:47.889Z,27.88
2022-11-15T14:29:53.755Z,26.30
2022-11-15T14:32:24.897Z,26.83
2022-11-15T14:34:58.436Z,26.08
2022-11-15T14:37:29.292Z,25.13
2022-11-15T14:39:59.520Z,25.92
2022-11-15T14:42:28.848Z,25.90
2022-11-15T14:45:00.170Z,25.77
2022-11-15T14:49:58.652Z,21.15
2022-11-15T14:52:32.897Z,26.38
2022-11-15T14:55:04.885Z,23.17
2022-11-15T15:00:07.003Z,23.20
2022-11-15T15:02:36.644Z,24.48
2022-11-15T15:05:17.436Z,25.48
2022-11-15T15:07:47.011Z,24.42
2022-11-15T15:10:38.854Z,25.70
2022-11-15T15:13:08.832Z,24.70
2022-11-15T15:18:09.817Z,23.30
2022-11-15T15:20:41.938Z,24.75
2022-11-15T15:23:18.364Z,23.02
2022-11-15T15:25:50.205Z,25.33
2022-11-15T15:28:19.769Z,20.83
2022-11-15T15:30:51.937Z,22.88
2022-11-15T15:33:21.216Z,26.80
2022-11-15T15:35:51.382Z,24.33
2022-11-15T15:38:20.675Z,24.67
2022-11-15T15:40:51.621Z,23.60
2022-11-15T15:43:21.712Z,22.80
2022-11-15T15:45:53.215Z,24.10
2022-11-15T15:48:22.805Z,25.98
2022-11-15T15:50:54.061Z,24.17
2022-11-15T15:53:23.550Z,25.20
2022-11-15T15:55:53.782Z,26.90
2022-11-15T15:58:23.391Z,24.60
2022-11-15T16:00:54.729Z,24.95
2022-11-15T16:03:24.910Z,24.00
2022-11-15T16:05:54.927Z,22.52
2022-11-15T16:08:27.748Z,23.83
2022-11-15T16:10:57.921Z,23.25
2022-11-15T16:13:27.533Z,27.58
2022-11-15T16:15:58.674Z,23.33
2022-11-15T16:18:28.148Z,23.63
2022-11-15T16:20:58.311Z,24.48
2022-11-15T16:23:27.891Z,26.42
2022-11-15T16:25:58.607Z,25.25
2022-11-15T16:28:29.466Z,25.10
2022-11-15T16:31:06.193Z,25.92
2022-11-15T16:33:36.110Z,26.52
2022-11-15T16:36:08.184Z,24.83
2022-11-15T16:38:37.569Z,24.80
2022-11-15T16:41:07.776Z,24.60
2022-11-15T16:43:37.077Z,25.65
2022-11-15T16:46:14.928Z,25.92
2022-11-15T16:48:44.208Z,25.00
2022-11-15T16:51:14.313Z,24.85
2022-11-15T16:53:44.652Z,25.73
2022-11-15T16:56:22.280Z,25.02
2022-11-15T16:58:51.662Z,23.77
2022-11-15T17:01:26.138Z,25.73
2022-11-15T17:03:56.364Z,24.45
2022-11-15T17:06:27.876Z,23.75
2022-11-15T17:08:57.404Z,23.02
2022-11-15T17:11:27.378Z,23.63
2022-11-15T17:14:00.408Z,22.98
2022-11-15T17:16:31.865Z,23.38
2022-11-15T17:19:01.986Z,24.05
2022-11-15T17:21:33.855Z,26.05
2022-11-15T17:24:03.224Z,26.30
2022-11-15T17:26:37.609Z,24.92
2022-11-15T17:29:10.277Z,25.80
2022-11-15T17:31:41.853Z,24.55
2022-11-15T17:36:40.880Z,23.90
2022-11-15T17:39:10.375Z,26.65
2022-11-15T17:41:41.012Z,25.33
2022-11-15T17:44:10.408Z,24.77
2022-11-15T17:46:42.560Z,24.85
2022-11-15T17:49:11.881Z,23.30
2022-11-15T17:51:46.115Z,23.63
2022-11-15T17:54:18.040Z,20.92
2022-11-15T17:56:48.131Z,23.67
2022-11-15T17:59:21.428Z,24.75
2022-11-15T18:01:54.373Z,24.67
2022-11-15T18:04:28.480Z,24.58
2022-11-15T18:06:58.185Z,24.52
2022-11-15T18:09:27.764Z,25.25
2022-11-15T18:11:58.895Z,23.73
2022-11-15T18:14:28.576Z,23.15
2022-11-15T18:17:00.442Z,24.20
2022-11-15T18:19:29.788Z,24.23
2022-11-15T18:22:01.530Z,25.35
2022-11-15T18:24:33.967Z,23.17
2022-11-15T18:27:05.843Z,23.90
2022-11-15T18:29:38.175Z,23.88
2022-11-15T18:32:12.718Z,27.35
2022-11-15T18:34:42.431Z,27.00
2022-11-15T18:37:12.648Z,28.83
2022-11-15T18:39:41.912Z,24.98
2022-11-15T18:42:11.524Z,25.58
2022-11-15T18:44:41.040Z,24.25
2022-11-15T18:47:12.122Z,21.88
2022-11-15T18:49:41.370Z,24.42
2022-11-15T18:52:11.000Z,23.98
2022-11-15T18:54:40.251Z,26.80
2022-11-15T18:57:10.420Z,24.23
2022-11-15T18:59:39.676Z,24.45
2022-11-15T19:02:13.371Z,26.52
2022-11-15T19:04:43.837Z,24.60
2022-11-15T19:07:13.544Z,26.70
2022-11-15T19:09:42.827Z,27.55
2022-11-15T19:12:12.761Z,26.77
2022-11-15T19:14:42.034Z,30.08
2022-11-15T19:17:13.615Z,27.80
2022-11-15T19:19:43.074Z,25.02
2022-11-15T19:22:12.691Z,25.92
2022-11-15T19:24:42.203Z,27.55
2022-11-15T19:27:12.152Z,27.10
2022-11-15T19:29:42.160Z,26.33
2022-11-15T19:32:13.290Z,25.33
2022-11-15T19:34:42.509Z,25.17
2022-11-15T19:37:12.579Z,25.38
2022-11-15T19:39:42.222Z,26.38
2022-11-15T19:42:12.037Z,26.50
2022-11-15T19:44:41.277Z,25.20
2022-11-15T19:47:10.929Z,25.27
2022-11-15T19:49:41.712Z,27.02
2022-11-15T19:52:11.669Z,24.38
2022-11-15T19:54:40.942Z,24.65
2022-11-15T19:57:10.597Z,24.55
2022-11-15T19:59:40.072Z,24.83
2022-11-15T20:02:12.289Z,22.88
2022-11-15T20:04:43.135Z,24.52
2022-11-15T20:07:13.159Z,25.52
2022-11-15T20:09:42.644Z,24.73
2022-11-15T20:12:12.632Z,24.77
2022-11-15T20:14:42.097Z,22.85
2022-11-15T20:17:11.756Z,25.80
2022-11-15T20:19:42.533Z,27.08
2022-11-15T20:22:12.749Z,25.88
2022-11-15T20:24:42.025Z,26.40
2022-11-15T20:27:12.373Z,29.23
2022-11-15T20:29:44.876Z,30.10
2022-11-15T20:32:15.630Z,28.30
2022-11-15T20:34:50.130Z,26.05
2022-11-15T20:37:22.885Z,30.05
2022-11-15T20:39:52.244Z,28.17
2022-11-15T20:42:22.246Z,29.60
2022-11-15T20:44:51.776Z,28.88
2022-11-15T20:47:24.186Z,30.27
2022-11-15T20:50:14.847Z,29.10
2022-11-15T20:52:49.197Z,31.27
2022-11-15T20:55:18.679Z,31.25
2022-11-15T20:57:49.099Z,31.23
2022-11-15T21:00:22.597Z,32.10
2022-11-15T21:02:52.197Z,31.73
2022-11-15T21:05:23.234Z,31.10
2022-11-15T21:07:52.858Z,29.95
2022-11-15T21:10:39.569Z,27.42
2022-11-15T21:13:09.552Z,27.17
2022-11-15T21:15:39.273Z,27.40
2022-11-15T21:18:09.115Z,27.03
2022-11-15T21:20:39.969Z,28.83
2022-11-15T21:23:10.346Z,29.60
2022-11-15T21:25:39.730Z,28.75
2022-11-15T21:28:09.691Z,27.23
2022-11-15T21:30:38.965Z,26.27
2022-11-15T21:33:08.918Z,28.10
2022-11-15T21:35:39.872Z,28.45
2022-11-15T21:38:09.493Z,29.98
2022-11-15T21:40:38.932Z,28.17
2022-11-15T21:43:08.961Z,28.20
2022-11-15T21:45:38.228Z,29.27
2022-11-15T21:48:08.984Z,28.63
2022-11-15T21:50:39.802Z,28.07
2022-11-15T21:53:09.965Z,28.23
2022-11-15T21:55:41.444Z,28.45
2022-11-15T21:58:11.266Z,27.38
2022-11-15T22:00:57.623Z,26.65
2022-11-15T22:03:27.668Z,28.83
2022-11-15T22:05:58.609Z,26.63
2022-11-15T22:08:28.767Z,28.30
2022-11-15T22:10:58.448Z,28.65
2022-11-15T22:13:28.767Z,30.13
2022-11-15T22:15:58.504Z,28.65
2022-11-15T22:18:28.771Z,29.53
2022-11-15T22:21:01.547Z,28.10
2022-11-15T22:23:32.690Z,26.67
2022-11-15T22:26:02.811Z,29.55
2022-11-15T22:28:33.335Z,28.52
2022-11-15T22:31:03.424Z,29.00
2022-11-15T22:33:34.752Z,28.87
2022-11-15T22:36:06.968Z,25.98
2022-11-15T22:38:37.703Z,28.58
2022-11-15T22:41:07.455Z,29.20
2022-11-15T22:43:37.883Z,27.63
2022-11-15T22:46:07.999Z,27.13
2022-11-15T22:48:39.631Z,30.98
2022-11-15T22:51:13.684Z,29.55
2022-11-15T22:53:44.021Z,28.85
2022-11-15T22:56:19.053Z,28.58
2022-11-15T22:58:50.316Z,28.10
2022-11-15T23:01:23.430Z,28.25
2022-11-15T23:03:53.572Z,28.80
2022-11-15T23:06:24.480Z,27.67
2022-11-15T23:08:54.497Z,27.83
2022-11-15T23:11:41.450Z,28.55
2022-11-15T23:14:11.389Z,28.83
2022-11-15T23:16:40.872Z,29.20
2022-11-15T23:19:13.446Z,27.60
2022-11-15T23:22:02.828Z,27.02
2022-11-15T23:24:34.134Z,25.70
2022-11-15T23:27:06.584Z,26.02
2022-11-15T23:29:59.106Z,26.85
2022-11-15T23:32:45.732Z,27.67
2022-11-15T23:35:16.078Z,27.73
2022-11-15T23:37:47.184Z,26.70
2022-11-15T23:40:17.098Z,26.25
2022-11-15T23:42:46.496Z,25.15
2022-11-15T23:45:16.357Z,27.00
2022-11-15T23:47:46.049Z,26.48
2022-11-15T23:50:16.112Z,26.07
2022-11-15T23:52:47.123Z,26.88
2022-11-15T23:55:18.479Z,26.40
2022-11-15T23:57:48.035Z,26.08
